sensor_id;sensor_type;location;lat;lon;timestamp;P1;durP1;ratioP1;P2;durP2;ratioP2
21233;SDS011;10774;42.178;26.578;2023-07-20T00:01:13;8.45;;;4.10;;
21233;SDS011;10774;42.178;26.578;2023-07-20T00:03:39;6.85;;;3.83;;
21233;SDS011;10774;42.178;26.578;2023-07-20T00:06:04;9.50;;;4.07;;
21233;SDS011;10774;42.178;26.578;2023-07-20T00:08:30;8.43;;;3.60;;
21233;SDS011;10774;42.178;26.578;2023-07-20T00:10:55;8.88;;;3.88;;
21233;SDS011;10774;42.178;26.578;2023-07-20T00:13:21;5.95;;;3.97;;
21233;SDS011;10774;42.178;26.578;2023-07-20T00:15:46;10.05;;;4.18;;
21233;SDS011;10774;42.178;26.578;2023-07-20T00:18:12;7.97;;;4.22;;
21233;SDS011;10774;42.178;26.578;2023-07-20T00:20:38;6.50;;;3.95;;
21233;SDS011;10774;42.178;26.578;2023-07-20T00:23:04;5.47;;;3.65;;
21233;SDS011;10774;42.178;26.578;2023-07-20T00:25:29;4.90;;;3.92;;
21233;SDS011;10774;42.178;26.578;2023-07-20T00:27:54;7.60;;;4.05;;
21233;SDS011;10774;42.178;26.578;2023-07-20T00:30:20;9.80;;;4.55;;
21233;SDS011;10774;42.178;26.578;2023-07-20T00:32:45;7.30;;;3.80;;
21233;SDS011;10774;42.178;26.578;2023-07-20T00:35:11;6.78;;;4.05;;
21233;SDS011;10774;42.178;26.578;2023-07-20T00:37:37;6.25;;;4.20;;
21233;SDS011;10774;42.178;26.578;2023-07-20T00:40:04;5.50;;;4.40;;
21233;SDS011;10774;42.178;26.578;2023-07-20T00:42:30;4.72;;;3.67;;
21233;SDS011;10774;42.178;26.578;2023-07-20T00:44:56;7.80;;;4.63;;
21233;SDS011;10774;42.178;26.578;2023-07-20T00:47:21;5.70;;;4.10;;
21233;SDS011;10774;42.178;26.578;2023-07-20T00:49:47;8.30;;;4.65;;
21233;SDS011;10774;42.178;26.578;2023-07-20T00:52:13;7.55;;;4.45;;
21233;SDS011;10774;42.178;26.578;2023-07-20T00:54:40;7.55;;;4.07;;
21233;SDS011;10774;42.178;26.578;2023-07-20T00:57:07;8.02;;;4.18;;
21233;SDS011;10774;42.178;26.578;2023-07-20T00:59:33;5.15;;;4.40;;
21233;SDS011;10774;42.178;26.578;2023-07-20T01:01:59;6.22;;;4.25;;
21233;SDS011;10774;42.178;26.578;2023-07-20T01:04:25;8.57;;;4.63;;
21233;SDS011;10774;42.178;26.578;2023-07-20T01:12:42;9.02;;;4.55;;
21233;SDS011;10774;42.178;26.578;2023-07-20T01:15:08;8.13;;;4.70;;
21233;SDS011;10774;42.178;26.578;2023-07-20T01:17:35;15.70;;;4.65;;
21233;SDS011;10774;42.178;26.578;2023-07-20T01:20:01;8.18;;;4.10;;
21233;SDS011;10774;42.178;26.578;2023-07-20T01:31:11;7.22;;;4.03;;
21233;SDS011;10774;42.178;26.578;2023-07-20T01:33:38;11.75;;;4.55;;
21233;SDS011;10774;42.178;26.578;2023-07-20T01:36:04;8.90;;;4.20;;
21233;SDS011;10774;42.178;26.578;2023-07-20T01:38:31;8.40;;;3.78;;
21233;SDS011;10774;42.178;26.578;2023-07-20T01:40:57;18.20;;;4.30;;
21233;SDS011;10774;42.178;26.578;2023-07-20T01:43:23;5.47;;;4.20;;
21233;SDS011;10774;42.178;26.578;2023-07-20T01:45:48;11.88;;;3.70;;
21233;SDS011;10774;42.178;26.578;2023-07-20T01:48:13;7.95;;;4.30;;
21233;SDS011;10774;42.178;26.578;2023-07-20T01:50:39;13.73;;;4.57;;
21233;SDS011;10774;42.178;26.578;2023-07-20T01:53:04;7.82;;;4.30;;
21233;SDS011;10774;42.178;26.578;2023-07-20T01:55:30;7.75;;;3.83;;
21233;SDS011;10774;42.178;26.578;2023-07-20T01:57:55;5.30;;;3.72;;
21233;SDS011;10774;42.178;26.578;2023-07-20T02:00:21;10.00;;;4.03;;
21233;SDS011;10774;42.178;26.578;2023-07-20T02:02:49;8.43;;;3.95;;
21233;SDS011;10774;42.178;26.578;2023-07-20T02:05:15;5.82;;;3.63;;
21233;SDS011;10774;42.178;26.578;2023-07-20T02:07:41;8.10;;;4.32;;
21233;SDS011;10774;42.178;26.578;2023-07-20T02:10:07;7.70;;;3.97;;
21233;SDS011;10774;42.178;26.578;2023-07-20T02:12:32;6.70;;;4.05;;
21233;SDS011;10774;42.178;26.578;2023-07-20T02:14:57;8.85;;;4.88;;
21233;SDS011;10774;42.178;26.578;2023-07-20T02:17:23;9.18;;;4.15;;
21233;SDS011;10774;42.178;26.578;2023-07-20T02:19:55;8.98;;;3.50;;
21233;SDS011;10774;42.178;26.578;2023-07-20T02:22:22;6.97;;;3.90;;
21233;SDS011;10774;42.178;26.578;2023-07-20T02:24:48;14.70;;;4.80;;
21233;SDS011;10774;42.178;26.578;2023-07-20T02:27:14;7.40;;;3.97;;
21233;SDS011;10774;42.178;26.578;2023-07-20T02:29:40;10.35;;;4.55;;
21233;SDS011;10774;42.178;26.578;2023-07-20T02:32:06;11.05;;;4.75;;
21233;SDS011;10774;42.178;26.578;2023-07-20T02:34:32;8.00;;;4.13;;
21233;SDS011;10774;42.178;26.578;2023-07-20T02:36:58;8.40;;;4.40;;
21233;SDS011;10774;42.178;26.578;2023-07-20T02:39:27;7.82;;;4.43;;
21233;SDS011;10774;42.178;26.578;2023-07-20T02:41:53;9.77;;;4.45;;
21233;SDS011;10774;42.178;26.578;2023-07-20T02:44:18;7.43;;;4.05;;
21233;SDS011;10774;42.178;26.578;2023-07-20T02:46:43;8.93;;;4.35;;
21233;SDS011;10774;42.178;26.578;2023-07-20T02:49:09;6.68;;;3.97;;
21233;SDS011;10774;42.178;26.578;2023-07-20T02:51:34;10.85;;;3.97;;
21233;SDS011;10774;42.178;26.578;2023-07-20T02:54:00;14.38;;;4.13;;
21233;SDS011;10774;42.178;26.578;2023-07-20T02:56:26;6.85;;;4.53;;
21233;SDS011;10774;42.178;26.578;2023-07-20T02:58:51;11.15;;;4.50;;
21233;SDS011;10774;42.178;26.578;2023-07-20T03:01:17;7.85;;;4.25;;
21233;SDS011;10774;42.178;26.578;2023-07-20T03:03:43;5.53;;;4.22;;
21233;SDS011;10774;42.178;26.578;2023-07-20T03:06:12;9.88;;;4.50;;
21233;SDS011;10774;42.178;26.578;2023-07-20T03:08:39;8.25;;;4.32;;
21233;SDS011;10774;42.178;26.578;2023-07-20T03:11:06;11.07;;;4.30;;
21233;SDS011;10774;42.178;26.578;2023-07-20T03:13:32;10.55;;;4.43;;
21233;SDS011;10774;42.178;26.578;2023-07-20T03:15:58;9.73;;;4.68;;
21233;SDS011;10774;42.178;26.578;2023-07-20T03:18:23;10.27;;;4.57;;
21233;SDS011;10774;42.178;26.578;2023-07-20T03:20:49;21.67;;;5.13;;
21233;SDS011;10774;42.178;26.578;2023-07-20T03:23:14;11.60;;;4.80;;
21233;SDS011;10774;42.178;26.578;2023-07-20T03:25:40;11.07;;;5.07;;
21233;SDS011;10774;42.178;26.578;2023-07-20T03:28:06;8.50;;;4.03;;
21233;SDS011;10774;42.178;26.578;2023-07-20T03:30:31;8.02;;;4.28;;
21233;SDS011;10774;42.178;26.578;2023-07-20T03:32:57;8.77;;;4.45;;
21233;SDS011;10774;42.178;26.578;2023-07-20T03:35:22;16.95;;;4.90;;
21233;SDS011;10774;42.178;26.578;2023-07-20T03:37:48;7.70;;;4.70;;
21233;SDS011;10774;42.178;26.578;2023-07-20T03:40:13;11.52;;;4.55;;
21233;SDS011;10774;42.178;26.578;2023-07-20T03:42:39;15.13;;;4.50;;
21233;SDS011;10774;42.178;26.578;2023-07-20T03:45:05;13.68;;;4.80;;
21233;SDS011;10774;42.178;26.578;2023-07-20T03:47:31;8.65;;;4.45;;
21233;SDS011;10774;42.178;26.578;2023-07-20T03:49:57;12.63;;;5.15;;
21233;SDS011;10774;42.178;26.578;2023-07-20T03:52:22;10.77;;;4.75;;
21233;SDS011;10774;42.178;26.578;2023-07-20T03:54:48;7.30;;;4.60;;
21233;SDS011;10774;42.178;26.578;2023-07-20T03:57:16;10.70;;;5.45;;
21233;SDS011;10774;42.178;26.578;2023-07-20T03:59:44;8.20;;;5.30;;
21233;SDS011;10774;42.178;26.578;2023-07-20T04:02:10;11.50;;;5.10;;
21233;SDS011;10774;42.178;26.578;2023-07-20T04:04:35;10.77;;;5.53;;
21233;SDS011;10774;42.178;26.578;2023-07-20T04:07:01;14.50;;;5.47;;
21233;SDS011;10774;42.178;26.578;2023-07-20T04:09:26;15.38;;;5.20;;
21233;SDS011;10774;42.178;26.578;2023-07-20T04:11:52;12.75;;;6.05;;
21233;SDS011;10774;42.178;26.578;2023-07-20T04:14:17;11.93;;;5.72;;
21233;SDS011;10774;42.178;26.578;2023-07-20T04:16:42;13.48;;;6.63;;
21233;SDS011;10774;42.178;26.578;2023-07-20T04:19:08;16.83;;;6.55;;
21233;SDS011;10774;42.178;26.578;2023-07-20T04:21:39;29.98;;;8.10;;
21233;SDS011;10774;42.178;26.578;2023-07-20T04:24:06;18.40;;;6.20;;
21233;SDS011;10774;42.178;26.578;2023-07-20T04:26:31;12.05;;;5.38;;
21233;SDS011;10774;42.178;26.578;2023-07-20T04:28:56;14.77;;;5.50;;
21233;SDS011;10774;42.178;26.578;2023-07-20T04:31:24;14.23;;;4.93;;
21233;SDS011;10774;42.178;26.578;2023-07-20T04:33:50;15.98;;;5.63;;
21233;SDS011;10774;42.178;26.578;2023-07-20T04:36:15;11.73;;;5.35;;
21233;SDS011;10774;42.178;26.578;2023-07-20T04:38:44;10.45;;;4.22;;
21233;SDS011;10774;42.178;26.578;2023-07-20T04:41:10;8.38;;;4.45;;
21233;SDS011;10774;42.178;26.578;2023-07-20T04:43:38;9.38;;;4.38;;
21233;SDS011;10774;42.178;26.578;2023-07-20T04:46:06;10.98;;;4.25;;
21233;SDS011;10774;42.178;26.578;2023-07-20T04:48:32;7.75;;;4.47;;
21233;SDS011;10774;42.178;26.578;2023-07-20T04:50:57;10.35;;;4.47;;
21233;SDS011;10774;42.178;26.578;2023-07-20T04:53:23;15.20;;;5.00;;
21233;SDS011;10774;42.178;26.578;2023-07-20T04:55:49;6.97;;;4.30;;
21233;SDS011;10774;42.178;26.578;2023-07-20T04:58:16;10.63;;;4.40;;
21233;SDS011;10774;42.178;26.578;2023-07-20T05:00:43;10.50;;;4.60;;
21233;SDS011;10774;42.178;26.578;2023-07-20T05:03:09;11.75;;;4.40;;
21233;SDS011;10774;42.178;26.578;2023-07-20T05:05:34;10.00;;;4.28;;
21233;SDS011;10774;42.178;26.578;2023-07-20T05:08:00;12.43;;;5.00;;
21233;SDS011;10774;42.178;26.578;2023-07-20T05:10:25;15.77;;;4.50;;
21233;SDS011;10774;42.178;26.578;2023-07-20T05:12:51;11.88;;;4.72;;
21233;SDS011;10774;42.178;26.578;2023-07-20T05:15:16;17.90;;;4.97;;
21233;SDS011;10774;42.178;26.578;2023-07-20T05:17:42;12.50;;;4.50;;
21233;SDS011;10774;42.178;26.578;2023-07-20T05:20:07;16.20;;;4.90;;
21233;SDS011;10774;42.178;26.578;2023-07-20T05:22:35;18.98;;;5.38;;
21233;SDS011;10774;42.178;26.578;2023-07-20T05:25:04;17.48;;;5.38;;
21233;SDS011;10774;42.178;26.578;2023-07-20T05:27:34;21.88;;;5.93;;
21233;SDS011;10774;42.178;26.578;2023-07-20T05:30:01;17.48;;;5.60;;
21233;SDS011;10774;42.178;26.578;2023-07-20T05:32:27;15.20;;;5.68;;
21233;SDS011;10774;42.178;26.578;2023-07-20T05:34:53;17.63;;;6.05;;
21233;SDS011;10774;42.178;26.578;2023-07-20T05:37:19;23.08;;;6.13;;
21233;SDS011;10774;42.178;26.578;2023-07-20T05:39:45;23.30;;;5.90;;
21233;SDS011;10774;42.178;26.578;2023-07-20T05:42:11;18.48;;;5.68;;
21233;SDS011;10774;42.178;26.578;2023-07-20T05:44:36;16.67;;;5.60;;
21233;SDS011;10774;42.178;26.578;2023-07-20T05:47:01;13.98;;;5.57;;
21233;SDS011;10774;42.178;26.578;2023-07-20T05:49:27;17.42;;;5.50;;
21233;SDS011;10774;42.178;26.578;2023-07-20T05:51:53;13.18;;;5.30;;
21233;SDS011;10774;42.178;26.578;2023-07-20T05:54:20;12.18;;;4.40;;
21233;SDS011;10774;42.178;26.578;2023-07-20T05:56:45;12.82;;;4.57;;
21233;SDS011;10774;42.178;26.578;2023-07-20T05:59:11;14.93;;;5.18;;
21233;SDS011;10774;42.178;26.578;2023-07-20T06:01:36;19.25;;;6.55;;
21233;SDS011;10774;42.178;26.578;2023-07-20T06:04:02;13.60;;;5.68;;
21233;SDS011;10774;42.178;26.578;2023-07-20T06:06:28;10.15;;;4.50;;
21233;SDS011;10774;42.178;26.578;2023-07-20T06:08:54;12.23;;;4.93;;
21233;SDS011;10774;42.178;26.578;2023-07-20T06:11:19;7.75;;;4.68;;
21233;SDS011;10774;42.178;26.578;2023-07-20T06:13:45;9.27;;;4.43;;
21233;SDS011;10774;42.178;26.578;2023-07-20T06:16:10;8.88;;;4.35;;
21233;SDS011;10774;42.178;26.578;2023-07-20T06:18:36;12.25;;;4.00;;
21233;SDS011;10774;42.178;26.578;2023-07-20T06:21:01;11.10;;;4.03;;
21233;SDS011;10774;42.178;26.578;2023-07-20T06:23:27;9.40;;;4.57;;
21233;SDS011;10774;42.178;26.578;2023-07-20T06:25:52;9.98;;;4.38;;
21233;SDS011;10774;42.178;26.578;2023-07-20T06:28:18;13.20;;;4.18;;
21233;SDS011;10774;42.178;26.578;2023-07-20T06:30:43;8.75;;;4.30;;
21233;SDS011;10774;42.178;26.578;2023-07-20T06:33:09;9.88;;;4.13;;
21233;SDS011;10774;42.178;26.578;2023-07-20T06:35:34;10.27;;;4.60;;
21233;SDS011;10774;42.178;26.578;2023-07-20T06:38:01;12.55;;;4.70;;
21233;SDS011;10774;42.178;26.578;2023-07-20T06:40:28;9.63;;;4.38;;
21233;SDS011;10774;42.178;26.578;2023-07-20T06:42:55;7.18;;;4.22;;
21233;SDS011;10774;42.178;26.578;2023-07-20T06:45:20;6.70;;;4.00;;
21233;SDS011;10774;42.178;26.578;2023-07-20T06:47:46;6.25;;;4.00;;
21233;SDS011;10774;42.178;26.578;2023-07-20T06:50:11;8.52;;;4.30;;
21233;SDS011;10774;42.178;26.578;2023-07-20T06:52:37;6.90;;;3.95;;
21233;SDS011;10774;42.178;26.578;2023-07-20T06:55:04;5.90;;;3.85;;
21233;SDS011;10774;42.178;26.578;2023-07-20T06:57:31;6.90;;;4.10;;
21233;SDS011;10774;42.178;26.578;2023-07-20T06:59:56;8.00;;;4.13;;
21233;SDS011;10774;42.178;26.578;2023-07-20T07:02:22;4.43;;;3.60;;
21233;SDS011;10774;42.178;26.578;2023-07-20T07:04:47;7.00;;;3.80;;
21233;SDS011;10774;42.178;26.578;2023-07-20T07:07:16;5.97;;;3.35;;
21233;SDS011;10774;42.178;26.578;2023-07-20T07:09:50;7.06;;;3.88;;
21233;SDS011;10774;42.178;26.578;2023-07-20T07:12:15;7.05;;;3.83;;
21233;SDS011;10774;42.178;26.578;2023-07-20T07:14:41;8.18;;;3.85;;
21233;SDS011;10774;42.178;26.578;2023-07-20T07:17:06;7.80;;;3.97;;
21233;SDS011;10774;42.178;26.578;2023-07-20T07:19:32;14.45;;;3.72;;
21233;SDS011;10774;42.178;26.578;2023-07-20T07:21:57;9.18;;;3.67;;
21233;SDS011;10774;42.178;26.578;2023-07-20T07:24:23;5.47;;;3.33;;
21233;SDS011;10774;42.178;26.578;2023-07-20T07:26:48;8.93;;;3.30;;
21233;SDS011;10774;42.178;26.578;2023-07-20T07:29:14;7.75;;;3.35;;
21233;SDS011;10774;42.178;26.578;2023-07-20T07:31:39;7.55;;;3.58;;
21233;SDS011;10774;42.178;26.578;2023-07-20T07:34:04;6.47;;;3.45;;
21233;SDS011;10774;42.178;26.578;2023-07-20T07:36:30;4.93;;;3.40;;
21233;SDS011;10774;42.178;26.578;2023-07-20T07:38:56;7.80;;;4.07;;
21233;SDS011;10774;42.178;26.578;2023-07-20T07:41:22;7.15;;;3.40;;
21233;SDS011;10774;42.178;26.578;2023-07-20T07:43:48;6.10;;;3.42;;
21233;SDS011;10774;42.178;26.578;2023-07-20T07:46:13;7.47;;;3.65;;
21233;SDS011;10774;42.178;26.578;2023-07-20T07:48:39;12.82;;;3.58;;
21233;SDS011;10774;42.178;26.578;2023-07-20T07:51:04;8.25;;;3.75;;
21233;SDS011;10774;42.178;26.578;2023-07-20T07:53:30;9.73;;;3.88;;
21233;SDS011;10774;42.178;26.578;2023-07-20T07:55:57;9.02;;;3.90;;
21233;SDS011;10774;42.178;26.578;2023-07-20T07:58:23;10.10;;;4.15;;
21233;SDS011;10774;42.178;26.578;2023-07-20T08:00:48;6.50;;;3.72;;
21233;SDS011;10774;42.178;26.578;2023-07-20T08:03:13;9.88;;;3.92;;
21233;SDS011;10774;42.178;26.578;2023-07-20T08:05:39;7.00;;;3.60;;
21233;SDS011;10774;42.178;26.578;2023-07-20T08:08:05;5.72;;;3.85;;
21233;SDS011;10774;42.178;26.578;2023-07-20T08:10:30;11.68;;;5.57;;
21233;SDS011;10774;42.178;26.578;2023-07-20T08:12:56;8.15;;;3.60;;
21233;SDS011;10774;42.178;26.578;2023-07-20T08:15:22;6.57;;;3.80;;
21233;SDS011;10774;42.178;26.578;2023-07-20T08:17:47;11.13;;;3.92;;
21233;SDS011;10774;42.178;26.578;2023-07-20T08:20:13;7.53;;;3.35;;
21233;SDS011;10774;42.178;26.578;2023-07-20T08:22:41;7.15;;;3.80;;
21233;SDS011;10774;42.178;26.578;2023-07-20T08:25:07;6.95;;;3.47;;
21233;SDS011;10774;42.178;26.578;2023-07-20T08:27:33;5.55;;;3.30;;
21233;SDS011;10774;42.178;26.578;2023-07-20T08:29:58;7.70;;;3.13;;
21233;SDS011;10774;42.178;26.578;2023-07-20T08:32:25;4.47;;;3.05;;
21233;SDS011;10774;42.178;26.578;2023-07-20T08:34:50;5.38;;;3.30;;
21233;SDS011;10774;42.178;26.578;2023-07-20T08:37:16;4.25;;;3.33;;
21233;SDS011;10774;42.178;26.578;2023-07-20T08:39:41;5.93;;;3.40;;
21233;SDS011;10774;42.178;26.578;2023-07-20T08:42:06;5.85;;;3.10;;
21233;SDS011;10774;42.178;26.578;2023-07-20T08:44:33;8.23;;;3.28;;
21233;SDS011;10774;42.178;26.578;2023-07-20T08:47:00;4.70;;;3.20;;
21233;SDS011;10774;42.178;26.578;2023-07-20T08:49:29;6.60;;;3.28;;
21233;SDS011;10774;42.178;26.578;2023-07-20T08:51:57;6.43;;;3.50;;
21233;SDS011;10774;42.178;26.578;2023-07-20T08:54:23;6.38;;;3.60;;
21233;SDS011;10774;42.178;26.578;2023-07-20T08:56:52;6.03;;;3.05;;
21233;SDS011;10774;42.178;26.578;2023-07-20T08:59:19;3.80;;;2.63;;
21233;SDS011;10774;42.178;26.578;2023-07-20T09:01:48;6.38;;;3.42;;
21233;SDS011;10774;42.178;26.578;2023-07-20T09:04:14;5.03;;;3.08;;
21233;SDS011;10774;42.178;26.578;2023-07-20T09:06:40;7.28;;;3.22;;
21233;SDS011;10774;42.178;26.578;2023-07-20T09:09:06;6.05;;;3.13;;
21233;SDS011;10774;42.178;26.578;2023-07-20T09:11:31;3.50;;;2.70;;
21233;SDS011;10774;42.178;26.578;2023-07-20T09:14:04;5.78;;;3.20;;
21233;SDS011;10774;42.178;26.578;2023-07-20T09:16:31;5.13;;;2.60;;
21233;SDS011;10774;42.178;26.578;2023-07-20T09:18:57;4.80;;;2.80;;
21233;SDS011;10774;42.178;26.578;2023-07-20T09:21:23;3.72;;;2.92;;
21233;SDS011;10774;42.178;26.578;2023-07-20T09:23:49;5.90;;;3.28;;
21233;SDS011;10774;42.178;26.578;2023-07-20T09:26:18;8.68;;;3.10;;
21233;SDS011;10774;42.178;26.578;2023-07-20T09:28:47;7.13;;;3.03;;
21233;SDS011;10774;42.178;26.578;2023-07-20T09:31:21;5.35;;;2.95;;
21233;SDS011;10774;42.178;26.578;2023-07-20T09:33:48;4.50;;;2.80;;
21233;SDS011;10774;42.178;26.578;2023-07-20T09:36:14;3.95;;;2.85;;
21233;SDS011;10774;42.178;26.578;2023-07-20T09:38:43;3.95;;;2.90;;
21233;SDS011;10774;42.178;26.578;2023-07-20T09:41:13;6.13;;;3.30;;
21233;SDS011;10774;42.178;26.578;2023-07-20T09:43:40;5.78;;;2.75;;
21233;SDS011;10774;42.178;26.578;2023-07-20T09:46:06;5.15;;;2.67;;
21233;SDS011;10774;42.178;26.578;2023-07-20T09:48:32;4.10;;;2.90;;
21233;SDS011;10774;42.178;26.578;2023-07-20T09:50:57;4.88;;;2.60;;
21233;SDS011;10774;42.178;26.578;2023-07-20T09:53:24;5.68;;;2.80;;
21233;SDS011;10774;42.178;26.578;2023-07-20T09:55:50;5.65;;;2.80;;
21233;SDS011;10774;42.178;26.578;2023-07-20T09:58:17;7.90;;;3.03;;
21233;SDS011;10774;42.178;26.578;2023-07-20T10:00:43;5.30;;;2.78;;
21233;SDS011;10774;42.178;26.578;2023-07-20T10:03:11;8.35;;;3.13;;
21233;SDS011;10774;42.178;26.578;2023-07-20T10:05:43;7.57;;;2.92;;
21233;SDS011;10774;42.178;26.578;2023-07-20T10:08:12;7.97;;;3.20;;
21233;SDS011;10774;42.178;26.578;2023-07-20T10:10:38;6.75;;;3.08;;
21233;SDS011;10774;42.178;26.578;2023-07-20T10:13:09;10.82;;;3.85;;
21233;SDS011;10774;42.178;26.578;2023-07-20T10:15:43;12.00;;;3.50;;
21233;SDS011;10774;42.178;26.578;2023-07-20T10:18:14;5.60;;;2.92;;
21233;SDS011;10774;42.178;26.578;2023-07-20T10:20:51;6.32;;;3.17;;
21233;SDS011;10774;42.178;26.578;2023-07-20T10:23:19;5.97;;;2.83;;
21233;SDS011;10774;42.178;26.578;2023-07-20T10:25:44;5.82;;;3.22;;
21233;SDS011;10774;42.178;26.578;2023-07-20T10:28:11;8.20;;;3.15;;
21233;SDS011;10774;42.178;26.578;2023-07-20T10:30:38;8.82;;;3.25;;
21233;SDS011;10774;42.178;26.578;2023-07-20T10:33:05;6.53;;;3.33;;
21233;SDS011;10774;42.178;26.578;2023-07-20T10:35:31;12.52;;;3.67;;
21233;SDS011;10774;42.178;26.578;2023-07-20T10:38:16;5.93;;;3.05;;
21233;SDS011;10774;42.178;26.578;2023-07-20T10:40:41;5.03;;;3.28;;
21233;SDS011;10774;42.178;26.578;2023-07-20T10:43:07;8.13;;;3.50;;
21233;SDS011;10774;42.178;26.578;2023-07-20T10:45:34;5.28;;;3.38;;
21233;SDS011;10774;42.178;26.578;2023-07-20T10:48:04;5.95;;;3.40;;
21233;SDS011;10774;42.178;26.578;2023-07-20T10:50:31;9.00;;;3.40;;
21233;SDS011;10774;42.178;26.578;2023-07-20T10:53:09;3.92;;;3.00;;
21233;SDS011;10774;42.178;26.578;2023-07-20T10:55:36;5.63;;;3.60;;
21233;SDS011;10774;42.178;26.578;2023-07-20T11:00:34;5.70;;;3.10;;
21233;SDS011;10774;42.178;26.578;2023-07-20T11:03:00;5.75;;;3.60;;
21233;SDS011;10774;42.178;26.578;2023-07-20T11:05:32;6.07;;;3.15;;
21233;SDS011;10774;42.178;26.578;2023-07-20T11:08:06;6.32;;;3.15;;
21233;SDS011;10774;42.178;26.578;2023-07-20T11:10:35;5.93;;;3.65;;
21233;SDS011;10774;42.178;26.578;2023-07-20T11:13:23;5.70;;;3.13;;
21233;SDS011;10774;42.178;26.578;2023-07-20T11:18:21;9.98;;;3.50;;
21233;SDS011;10774;42.178;26.578;2023-07-20T11:20:50;4.85;;;3.60;;
21233;SDS011;10774;42.178;26.578;2023-07-20T11:23:16;6.40;;;3.60;;
21233;SDS011;10774;42.178;26.578;2023-07-20T11:25:42;8.48;;;4.10;;
21233;SDS011;10774;42.178;26.578;2023-07-20T11:28:08;6.68;;;4.05;;
21233;SDS011;10774;42.178;26.578;2023-07-20T11:30:36;5.18;;;4.10;;
21233;SDS011;10774;42.178;26.578;2023-07-20T11:33:02;7.93;;;3.70;;
21233;SDS011;10774;42.178;26.578;2023-07-20T11:35:28;5.68;;;3.75;;
21233;SDS011;10774;42.178;26.578;2023-07-20T11:37:54;8.63;;;3.88;;
21233;SDS011;10774;42.178;26.578;2023-07-20T11:40:20;8.40;;;4.18;;
21233;SDS011;10774;42.178;26.578;2023-07-20T11:42:45;6.00;;;3.97;;
21233;SDS011;10774;42.178;26.578;2023-07-20T11:45:11;6.40;;;4.75;;
21233;SDS011;10774;42.178;26.578;2023-07-20T11:47:40;4.80;;;4.35;;
21233;SDS011;10774;42.178;26.578;2023-07-20T11:50:07;8.02;;;4.30;;
21233;SDS011;10774;42.178;26.578;2023-07-20T11:52:32;9.05;;;4.10;;
21233;SDS011;10774;42.178;26.578;2023-07-20T11:54:58;6.28;;;4.13;;
21233;SDS011;10774;42.178;26.578;2023-07-20T11:57:24;10.25;;;4.20;;
21233;SDS011;10774;42.178;26.578;2023-07-20T11:59:57;8.05;;;3.95;;
21233;SDS011;10774;42.178;26.578;2023-07-20T12:02:26;6.38;;;4.13;;
21233;SDS011;10774;42.178;26.578;2023-07-20T12:04:53;7.43;;;4.07;;
21233;SDS011;10774;42.178;26.578;2023-07-20T12:07:19;9.60;;;4.22;;
21233;SDS011;10774;42.178;26.578;2023-07-20T12:09:44;7.38;;;4.30;;
21233;SDS011;10774;42.178;26.578;2023-07-20T12:12:12;6.25;;;4.50;;
21233;SDS011;10774;42.178;26.578;2023-07-20T12:14:37;9.32;;;4.50;;
21233;SDS011;10774;42.178;26.578;2023-07-20T12:17:02;5.80;;;3.80;;
21233;SDS011;10774;42.178;26.578;2023-07-20T12:19:28;5.65;;;4.25;;
21233;SDS011;10774;42.178;26.578;2023-07-20T12:21:56;5.47;;;3.83;;
21233;SDS011;10774;42.178;26.578;2023-07-20T12:24:24;10.02;;;4.28;;
21233;SDS011;10774;42.178;26.578;2023-07-20T12:26:55;7.25;;;4.25;;
21233;SDS011;10774;42.178;26.578;2023-07-20T12:29:22;12.40;;;4.35;;
21233;SDS011;10774;42.178;26.578;2023-07-20T12:31:48;10.50;;;3.92;;
21233;SDS011;10774;42.178;26.578;2023-07-20T12:34:13;5.53;;;3.53;;
21233;SDS011;10774;42.178;26.578;2023-07-20T12:36:38;11.93;;;4.53;;
21233;SDS011;10774;42.178;26.578;2023-07-20T12:39:04;6.00;;;4.03;;
21233;SDS011;10774;42.178;26.578;2023-07-20T12:41:30;7.00;;;4.45;;
21233;SDS011;10774;42.178;26.578;2023-07-20T12:43:55;8.60;;;4.10;;
21233;SDS011;10774;42.178;26.578;2023-07-20T12:46:23;5.55;;;4.18;;
21233;SDS011;10774;42.178;26.578;2023-07-20T12:48:48;7.43;;;4.40;;
21233;SDS011;10774;42.178;26.578;2023-07-20T12:51:14;6.63;;;4.25;;
21233;SDS011;10774;42.178;26.578;2023-07-20T12:53:39;9.93;;;4.22;;
21233;SDS011;10774;42.178;26.578;2023-07-20T12:56:05;9.80;;;4.60;;
21233;SDS011;10774;42.178;26.578;2023-07-20T12:58:31;5.63;;;3.72;;
21233;SDS011;10774;42.178;26.578;2023-07-20T13:00:56;8.02;;;4.03;;
21233;SDS011;10774;42.178;26.578;2023-07-20T13:03:21;7.88;;;4.45;;
21233;SDS011;10774;42.178;26.578;2023-07-20T13:05:47;6.43;;;4.13;;
21233;SDS011;10774;42.178;26.578;2023-07-20T13:08:14;5.95;;;4.20;;
21233;SDS011;10774;42.178;26.578;2023-07-20T13:10:40;7.90;;;4.80;;
21233;SDS011;10774;42.178;26.578;2023-07-20T13:13:06;5.30;;;4.22;;
21233;SDS011;10774;42.178;26.578;2023-07-20T13:15:32;5.28;;;4.32;;
21233;SDS011;10774;42.178;26.578;2023-07-20T13:18:09;8.18;;;4.20;;
21233;SDS011;10774;42.178;26.578;2023-07-20T13:20:35;6.03;;;4.32;;
21233;SDS011;10774;42.178;26.578;2023-07-20T13:23:01;6.40;;;4.18;;
21233;SDS011;10774;42.178;26.578;2023-07-20T13:25:26;7.32;;;4.20;;
21233;SDS011;10774;42.178;26.578;2023-07-20T13:27:52;5.57;;;3.80;;
21233;SDS011;10774;42.178;26.578;2023-07-20T13:30:19;8.30;;;4.40;;
21233;SDS011;10774;42.178;26.578;2023-07-20T13:32:46;9.93;;;4.50;;
21233;SDS011;10774;42.178;26.578;2023-07-20T13:35:12;8.70;;;4.43;;
21233;SDS011;10774;42.178;26.578;2023-07-20T13:37:37;7.07;;;4.78;;
21233;SDS011;10774;42.178;26.578;2023-07-20T13:40:03;7.97;;;4.00;;
21233;SDS011;10774;42.178;26.578;2023-07-20T13:42:34;8.73;;;4.43;;
21233;SDS011;10774;42.178;26.578;2023-07-20T13:45:00;10.23;;;4.00;;
21233;SDS011;10774;42.178;26.578;2023-07-20T13:47:26;7.55;;;4.38;;
21233;SDS011;10774;42.178;26.578;2023-07-20T13:49:51;6.45;;;4.00;;
21233;SDS011;10774;42.178;26.578;2023-07-20T13:52:17;7.88;;;4.15;;
21233;SDS011;10774;42.178;26.578;2023-07-20T13:54:42;11.38;;;4.20;;
21233;SDS011;10774;42.178;26.578;2023-07-20T13:57:08;6.78;;;4.28;;
21233;SDS011;10774;42.178;26.578;2023-07-20T13:59:33;7.95;;;4.40;;
21233;SDS011;10774;42.178;26.578;2023-07-20T14:01:58;4.47;;;3.45;;
21233;SDS011;10774;42.178;26.578;2023-07-20T14:17:19;10.75;;;4.65;;
21233;SDS011;10774;42.178;26.578;2023-07-20T14:19:45;8.30;;;4.38;;
21233;SDS011;10774;42.178;26.578;2023-07-20T14:22:10;6.63;;;4.32;;
21233;SDS011;10774;42.178;26.578;2023-07-20T14:24:36;9.57;;;4.32;;
21233;SDS011;10774;42.178;26.578;2023-07-20T14:27:01;8.80;;;5.15;;
21233;SDS011;10774;42.178;26.578;2023-07-20T14:29:27;6.93;;;4.13;;
21233;SDS011;10774;42.178;26.578;2023-07-20T14:31:56;6.90;;;4.05;;
21233;SDS011;10774;42.178;26.578;2023-07-20T14:34:21;9.98;;;3.85;;
21233;SDS011;10774;42.178;26.578;2023-07-20T14:36:47;6.70;;;4.15;;
21233;SDS011;10774;42.178;26.578;2023-07-20T14:39:13;8.75;;;4.50;;
21233;SDS011;10774;42.178;26.578;2023-07-20T14:41:38;10.90;;;4.97;;
21233;SDS011;10774;42.178;26.578;2023-07-20T14:44:04;6.75;;;3.80;;
21233;SDS011;10774;42.178;26.578;2023-07-20T14:46:29;11.98;;;4.53;;
21233;SDS011;10774;42.178;26.578;2023-07-20T14:48:57;7.85;;;4.20;;
21233;SDS011;10774;42.178;26.578;2023-07-20T14:51:23;10.25;;;4.78;;
21233;SDS011;10774;42.178;26.578;2023-07-20T14:53:48;10.90;;;4.50;;
21233;SDS011;10774;42.178;26.578;2023-07-20T14:56:13;9.02;;;4.65;;
21233;SDS011;10774;42.178;26.578;2023-07-20T14:58:39;8.55;;;4.35;;